createdAt,value
2022-12-15T00:00:33.283Z,61.54
2022-12-15T00:01:34.745Z,64.16
2022-12-15T00:02:34.343Z,67.09
2022-12-15T00:03:33.021Z,68.60
2022-12-15T00:04:32.234Z,67.99
2022-12-15T00:05:32.053Z,66.63
2022-12-15T00:06:31.300Z,65.43
2022-12-15T00:07:31.114Z,61.36
2022-12-15T00:08:35.194Z,60.53
2022-12-15T00:09:33.958Z,59.33
2022-12-15T00:10:33.228Z,58.06
2022-12-15T00:11:38.272Z,58.61
2022-12-15T00:12:31.681Z,58.79
2022-12-15T00:13:44.267Z,58.78
2022-12-15T00:14:36.530Z,60.47
2022-12-15T00:15:41.232Z,62.25
2022-12-15T00:16:33.500Z,60.81
2022-12-15T00:17:32.259Z,56.54
2022-12-15T00:18:30.583Z,54.53
2022-12-15T00:19:23.812Z,56.92
2022-12-15T00:20:23.180Z,58.70
2022-12-15T00:21:16.042Z,59.54
2022-12-15T00:22:08.496Z,59.89
2022-12-15T00:23:07.218Z,60.97
2022-12-15T00:24:00.089Z,62.46
2022-12-15T00:24:52.747Z,60.03
2022-12-15T00:25:51.206Z,60.04
2022-12-15T00:26:43.810Z,61.87
2022-12-15T00:27:36.753Z,60.01
2022-12-15T00:28:37.207Z,57.67
2022-12-15T00:29:29.842Z,57.17
2022-12-15T00:30:25.343Z,59.39
2022-12-15T00:31:24.260Z,62.74
2022-12-15T00:32:24.180Z,62.79
2022-12-15T00:33:23.245Z,62.85
2022-12-15T00:34:22.232Z,62.03
2022-12-15T00:35:15.039Z,58.96
2022-12-15T00:36:07.489Z,60.05
2022-12-15T00:37:06.215Z,61.26
2022-12-15T00:37:58.954Z,63.81
2022-12-15T00:38:43.140Z,68.46
2022-12-15T00:39:24.185Z,72.70
2022-12-15T00:40:04.257Z,76.82
2022-12-15T00:40:37.851Z,79.11
2022-12-15T00:41:24.178Z,83.09
2022-12-15T00:41:58.265Z,94.26
2022-12-15T00:42:31.892Z,99.59
2022-12-15T00:43:13.190Z,104.74
2022-12-15T00:43:47.263Z,123.04
2022-12-15T00:44:21.079Z,126.22
2022-12-15T00:45:05.243Z,127.69
2022-12-15T00:45:57.861Z,130.39
2022-12-15T00:46:50.758Z,118.00
2022-12-15T00:47:32.151Z,99.16
2022-12-15T00:48:06.332Z,90.44
2022-12-15T00:48:40.927Z,86.88
2022-12-15T00:49:40.183Z,86.45
2022-12-15T00:50:45.208Z,80.24
2022-12-15T00:51:20.300Z,66.46
2022-12-15T00:52:25.204Z,63.60
2022-12-15T00:53:17.474Z,63.16
2022-12-15T00:54:22.142Z,65.19
2022-12-15T00:55:14.821Z,71.24
2022-12-15T00:56:20.203Z,71.80
2022-12-15T00:57:13.687Z,68.88
2022-12-15T00:58:18.198Z,69.71
2022-12-15T00:59:10.757Z,69.38
2022-12-15T01:00:17.164Z,68.84
2022-12-15T01:01:09.718Z,70.66
2022-12-15T01:02:09.313Z,73.69
2022-12-15T01:03:01.773Z,74.51
2022-12-15T01:03:54.638Z,85.09
2022-12-15T01:04:54.158Z,109.53
2022-12-15T01:05:46.795Z,109.71
2022-12-15T01:06:39.665Z,103.74
2022-12-15T01:07:39.173Z,98.32
2022-12-15T01:08:31.630Z,92.71
2022-12-15T01:09:27.765Z,88.86
2022-12-15T01:10:27.168Z,88.54
2022-12-15T01:11:19.801Z,85.97
2022-12-15T01:12:12.679Z,83.57
2022-12-15T01:13:13.168Z,82.91
2022-12-15T01:14:05.919Z,80.88
2022-12-15T01:14:58.382Z,79.06
2022-12-15T01:15:57.190Z,75.81
2022-12-15T01:16:49.651Z,69.19
2022-12-15T01:17:42.856Z,68.51
2022-12-15T01:18:42.191Z,67.86
2022-12-15T01:19:35.071Z,67.51
2022-12-15T01:20:18.516Z,67.76
2022-12-15T01:21:07.145Z,70.68
2022-12-15T01:21:41.209Z,72.72
2022-12-15T01:22:14.882Z,73.78
2022-12-15T01:23:00.119Z,74.66
2022-12-15T01:23:34.610Z,74.51
2022-12-15T01:24:15.129Z,73.79
2022-12-15T01:24:55.174Z,76.25
2022-12-15T01:25:35.144Z,81.00
2022-12-15T01:26:15.147Z,78.84
2022-12-15T01:26:55.092Z,76.20
2022-12-15T01:27:35.184Z,72.14
2022-12-15T01:28:15.120Z,68.59
2022-12-15T01:28:55.170Z,67.21
2022-12-15T01:29:35.133Z,68.84
2022-12-15T01:30:20.230Z,71.20
2022-12-15T01:31:00.171Z,70.84
2022-12-15T01:31:40.207Z,66.18
2022-12-15T01:32:20.099Z,63.72
2022-12-15T01:33:01.153Z,62.86
2022-12-15T01:33:41.100Z,61.85
2022-12-15T01:34:22.623Z,63.53
2022-12-15T01:35:11.141Z,71.51
2022-12-15T01:35:45.195Z,86.32
2022-12-15T01:36:32.117Z,93.94
2022-12-15T01:37:06.140Z,98.01
2022-12-15T01:37:53.094Z,102.79
2022-12-15T01:38:27.412Z,107.39
2022-12-15T01:39:14.121Z,98.22
2022-12-15T01:40:07.013Z,96.16
2022-12-15T01:40:53.140Z,101.65
2022-12-15T01:41:33.236Z,104.75
2022-12-15T01:42:19.100Z,105.94
2022-12-15T01:43:00.147Z,103.95
2022-12-15T01:43:43.111Z,102.66
2022-12-15T01:44:30.149Z,101.20
2022-12-15T01:45:51.103Z,100.36
2022-12-15T01:46:31.140Z,98.40
2022-12-15T01:47:05.387Z,92.18
2022-12-15T01:47:52.098Z,88.80
2022-12-15T01:48:41.969Z,88.06
2022-12-15T01:49:34.092Z,85.74
2022-12-15T01:50:08.138Z,86.10
2022-12-15T01:51:12.115Z,87.54
2022-12-15T01:51:49.117Z,86.85
2022-12-15T01:52:37.087Z,81.34
2022-12-15T01:53:11.111Z,82.47
2022-12-15T01:54:06.118Z,81.39
2022-12-15T01:54:48.538Z,77.91
2022-12-15T01:55:37.083Z,75.99
2022-12-15T01:56:20.169Z,73.60
2022-12-15T01:57:20.099Z,71.74
2022-12-15T01:58:19.102Z,70.41
2022-12-15T01:59:16.098Z,71.65
2022-12-15T02:00:14.105Z,70.16
2022-12-15T02:01:08.116Z,69.32
2022-12-15T02:01:49.678Z,66.57
2022-12-15T02:02:38.462Z,63.60
2022-12-15T02:03:21.118Z,63.59
2022-12-15T02:04:01.113Z,62.86
2022-12-15T02:04:41.089Z,63.60
2022-12-15T02:05:21.117Z,64.54
2022-12-15T02:06:04.073Z,64.32
2022-12-15T02:06:44.154Z,63.22
2022-12-15T02:07:25.093Z,63.05
2022-12-15T02:08:06.110Z,63.85
2022-12-15T02:08:47.096Z,62.81
2022-12-15T02:09:29.110Z,64.01
2022-12-15T02:10:14.067Z,64.50
2022-12-15T02:11:39.191Z,64.01
2022-12-15T02:12:56.088Z,62.78
2022-12-15T02:13:53.099Z,60.47
2022-12-15T02:15:16.072Z,58.25
2022-12-15T02:16:09.160Z,56.61
2022-12-15T02:17:15.056Z,58.19
2022-12-15T02:18:39.079Z,58.99
2022-12-15T02:20:03.072Z,58.30
2022-12-15T02:21:24.067Z,58.67
2022-12-15T02:22:37.064Z,58.71
2022-12-15T02:23:55.088Z,59.51
2022-12-15T02:25:28.048Z,60.89
2022-12-15T02:26:45.058Z,62.90
2022-12-15T02:28:21.085Z,63.33
2022-12-15T02:30:11.057Z,73.38
2022-12-15T02:31:50.009Z,88.04
2022-12-15T02:33:17.144Z,84.70
2022-12-15T02:34:44.055Z,83.46
2022-12-15T02:35:43.068Z,81.45
2022-12-15T02:36:40.093Z,79.40
2022-12-15T02:37:30.027Z,78.47
2022-12-15T02:38:04.136Z,70.84
2022-12-15T02:38:52.023Z,68.21
2022-12-15T02:39:26.131Z,67.76
2022-12-15T02:40:16.039Z,69.43
2022-12-15T02:40:57.074Z,70.01
2022-12-15T02:42:00.045Z,66.76
2022-12-15T02:43:02.027Z,64.21
2022-12-15T02:43:56.014Z,62.85
2022-12-15T02:45:15.014Z,62.26
2022-12-15T02:46:38.105Z,60.79
2022-12-15T02:47:53.045Z,59.19
2022-12-15T02:48:56.020Z,60.56
2022-12-15T02:50:21.034Z,59.56
2022-12-15T02:51:38.033Z,58.92
2022-12-15T02:52:55.024Z,59.46
2022-12-15T02:53:38.106Z,59.40
2022-12-15T02:55:05.064Z,60.14
2022-12-15T02:56:12.122Z,58.83
2022-12-15T02:57:27.023Z,61.11
2022-12-15T02:58:26.110Z,62.75
2022-12-15T02:59:18.032Z,63.17
2022-12-15T03:00:08.132Z,62.90
2022-12-15T03:00:53.062Z,61.96
2022-12-15T03:01:48.174Z,61.63
2022-12-15T03:02:35.128Z,62.45
2022-12-15T03:03:20.097Z,61.17
2022-12-15T03:04:00.984Z,61.67
2022-12-15T03:04:41.035Z,62.25
2022-12-15T03:05:22.024Z,62.42
2022-12-15T03:06:05.224Z,61.47
2022-12-15T03:06:46.015Z,62.40
2022-12-15T03:07:27.848Z,62.25
2022-12-15T03:08:08.016Z,61.92
2022-12-15T03:08:48.128Z,62.74
2022-12-15T03:09:27.989Z,61.75
2022-12-15T03:10:11.234Z,60.33
2022-12-15T03:10:50.991Z,60.66
2022-12-15T03:11:32.157Z,61.09
2022-12-15T03:12:13.005Z,60.96
2022-12-15T03:12:54.422Z,61.17
2022-12-15T03:13:34.555Z,61.03
2022-12-15T03:14:15.116Z,62.21
2022-12-15T03:14:54.980Z,62.69
2022-12-15T03:15:35.860Z,62.94
2022-12-15T03:16:16.016Z,63.96
2022-12-15T03:16:58.194Z,64.03
2022-12-15T03:17:37.984Z,63.89
2022-12-15T03:18:18.084Z,65.46
2022-12-15T03:18:59.023Z,64.10
2022-12-15T03:19:39.072Z,64.16
2022-12-15T03:20:20.004Z,64.09
2022-12-15T03:21:00.038Z,66.34
2022-12-15T03:21:40.979Z,66.85
2022-12-15T03:22:21.017Z,66.63
2022-12-15T03:23:00.976Z,66.41
2022-12-15T03:23:41.051Z,66.94
2022-12-15T03:24:20.984Z,65.97
2022-12-15T03:25:01.041Z,65.93
2022-12-15T03:25:41.022Z,65.55
2022-12-15T03:26:22.042Z,64.57
2022-12-15T03:27:02.973Z,63.55
2022-12-15T03:27:44.245Z,64.21
2022-12-15T03:28:24.984Z,64.50
2022-12-15T03:29:05.032Z,64.20
2022-12-15T03:29:45.010Z,64.78
2022-12-15T03:30:25.003Z,64.78
2022-12-15T03:31:05.947Z,64.50
2022-12-15T03:31:46.117Z,63.74
2022-12-15T03:32:30.977Z,61.79
2022-12-15T03:33:11.036Z,62.17
2022-12-15T03:33:50.984Z,63.13
2022-12-15T03:34:31.047Z,63.39
2022-12-15T03:35:12.000Z,63.10
2022-12-15T03:35:52.996Z,63.25
2022-12-15T03:36:32.972Z,63.88
2022-12-15T03:37:12.995Z,62.35
2022-12-15T03:37:52.979Z,61.92
2022-12-15T03:38:33.011Z,61.16
2022-12-15T03:39:14.023Z,61.64
2022-12-15T03:39:54.024Z,62.59
2022-12-15T03:40:34.988Z,63.30
2022-12-15T03:41:15.077Z,62.28
2022-12-15T03:41:54.972Z,62.69
2022-12-15T03:42:49.932Z,61.89
2022-12-15T03:43:30.340Z,60.01
2022-12-15T03:44:10.999Z,58.59
2022-12-15T03:44:51.968Z,58.61
2022-12-15T03:45:34.064Z,59.83
2022-12-15T03:46:14.023Z,58.95
2022-12-15T03:46:57.209Z,57.69
2022-12-15T03:47:39.953Z,57.51
2022-12-15T03:48:19.997Z,58.34
2022-12-15T03:49:00.958Z,60.05
2022-12-15T03:49:41.034Z,61.28
2022-12-15T03:50:24.934Z,59.67
2022-12-15T03:51:05.021Z,59.50
2022-12-15T03:51:45.036Z,60.53
2022-12-15T03:52:25.015Z,59.81
2022-12-15T03:53:07.959Z,59.92
2022-12-15T03:53:49.305Z,59.39
2022-12-15T03:54:29.955Z,59.88
2022-12-15T03:55:10.996Z,60.35
2022-12-15T03:55:50.959Z,60.04
2022-12-15T03:56:32.401Z,59.08
2022-12-15T03:57:12.960Z,57.39
2022-12-15T03:57:53.151Z,57.78
2022-12-15T03:58:33.967Z,57.50
2022-12-15T03:59:14.004Z,59.21
2022-12-15T03:59:53.935Z,57.96
2022-12-15T04:00:35.082Z,57.61
2022-12-15T04:01:29.053Z,56.97
2022-12-15T04:02:09.146Z,57.55
2022-12-15T04:02:50.450Z,60.53
2022-12-15T04:03:31.406Z,60.17
2022-12-15T04:04:12.956Z,58.92
2022-12-15T04:04:53.009Z,58.90
2022-12-15T04:05:39.940Z,58.30
2022-12-15T04:06:19.986Z,59.70
2022-12-15T04:06:59.921Z,58.91
2022-12-15T04:07:39.986Z,57.96
2022-12-15T04:08:19.941Z,57.66
2022-12-15T04:08:59.986Z,57.00
2022-12-15T04:09:39.914Z,57.31
2022-12-15T04:10:20.023Z,57.20
2022-12-15T04:10:59.931Z,55.81
2022-12-15T04:11:40.049Z,56.21
2022-12-15T04:12:20.931Z,59.84
2022-12-15T04:13:06.035Z,63.50
2022-12-15T04:13:46.942Z,61.34
2022-12-15T04:14:27.036Z,59.92
2022-12-15T04:15:06.916Z,61.84
2022-12-15T04:15:46.981Z,61.83
2022-12-15T04:16:26.937Z,59.80
2022-12-15T04:17:07.037Z,60.65
2022-12-15T04:17:47.924Z,61.58
2022-12-15T04:18:27.961Z,61.45
2022-12-15T04:19:26.948Z,61.86
2022-12-15T04:20:09.887Z,58.86
2022-12-15T04:20:50.302Z,56.72
2022-12-15T04:21:30.944Z,56.28
2022-12-15T04:22:16.353Z,57.84
2022-12-15T04:22:58.934Z,58.75
2022-12-15T04:23:39.919Z,57.78
2022-12-15T04:24:44.930Z,58.36
2022-12-15T04:25:57.906Z,57.19
2022-12-15T04:27:09.907Z,56.39
2022-12-15T04:28:21.894Z,55.67
2022-12-15T04:29:33.926Z,55.83
2022-12-15T04:30:34.018Z,55.91
2022-12-15T04:31:40.550Z,55.19
2022-12-15T04:32:39.921Z,55.15
2022-12-15T04:33:38.949Z,56.14
2022-12-15T04:34:46.900Z,56.17
2022-12-15T04:35:51.939Z,55.19
2022-12-15T04:37:04.923Z,55.59
2022-12-15T04:38:16.916Z,54.78
2022-12-15T04:39:29.920Z,54.70
2022-12-15T04:40:42.890Z,54.44
2022-12-15T04:41:41.924Z,54.00
2022-12-15T04:42:41.705Z,54.11
2022-12-15T04:43:40.931Z,54.17
2022-12-15T04:44:39.437Z,54.08
2022-12-15T04:45:39.896Z,54.41
2022-12-15T04:46:38.898Z,54.63
2022-12-15T04:47:37.914Z,54.51
2022-12-15T04:48:36.693Z,52.60
2022-12-15T04:49:35.904Z,52.56
2022-12-15T04:50:34.566Z,53.10
2022-12-15T04:51:33.904Z,52.44
2022-12-15T04:52:32.527Z,51.76
2022-12-15T04:53:37.960Z,51.61
2022-12-15T04:54:37.717Z,51.75
2022-12-15T04:55:36.923Z,53.15
2022-12-15T04:56:38.507Z,53.11
2022-12-15T04:57:37.891Z,51.90
2022-12-15T04:58:36.652Z,53.01
2022-12-15T04:59:35.909Z,52.76
2022-12-15T05:00:35.910Z,52.49
2022-12-15T05:01:34.917Z,51.33
2022-12-15T05:02:33.396Z,52.10
2022-12-15T05:03:34.225Z,52.16
2022-12-15T05:04:33.991Z,53.44
2022-12-15T05:05:33.985Z,53.25
2022-12-15T05:06:33.431Z,53.92
2022-12-15T05:07:32.923Z,53.85
2022-12-15T05:08:31.253Z,53.79
2022-12-15T05:09:30.874Z,54.53
2022-12-15T05:10:30.492Z,54.09
2022-12-15T05:11:29.924Z,55.08
2022-12-15T05:12:29.332Z,56.92
2022-12-15T05:13:34.332Z,56.16
2022-12-15T05:14:33.712Z,56.40
2022-12-15T05:15:33.926Z,57.46
2022-12-15T05:16:45.948Z,57.60
2022-12-15T05:17:57.894Z,57.42
2022-12-15T05:19:10.847Z,57.10
2022-12-15T05:20:22.854Z,56.28
2022-12-15T05:21:34.846Z,56.45
2022-12-15T05:22:33.918Z,55.47
2022-12-15T05:23:33.034Z,55.84
2022-12-15T05:24:31.855Z,55.75
2022-12-15T05:25:31.578Z,54.80
2022-12-15T05:26:30.830Z,55.99
2022-12-15T05:27:29.492Z,56.44
2022-12-15T05:28:31.901Z,55.14
2022-12-15T05:29:30.656Z,55.60
2022-12-15T05:30:30.845Z,57.06
2022-12-15T05:31:42.851Z,59.34
2022-12-15T05:32:36.827Z,57.97
2022-12-15T05:33:31.073Z,57.89
2022-12-15T05:34:10.814Z,57.21
2022-12-15T05:34:50.850Z,58.01
2022-12-15T05:35:31.842Z,58.05
2022-12-15T05:36:12.886Z,57.15
2022-12-15T05:36:52.826Z,56.46
2022-12-15T05:37:32.888Z,57.39
2022-12-15T05:38:12.828Z,56.54
2022-12-15T05:38:57.853Z,58.16
2022-12-15T05:39:32.934Z,60.64
2022-12-15T05:40:19.812Z,59.20
2022-12-15T05:40:53.934Z,59.55
2022-12-15T05:41:40.833Z,60.30
2022-12-15T05:42:14.940Z,59.92
2022-12-15T05:43:05.835Z,59.92
2022-12-15T05:43:39.872Z,60.17
2022-12-15T05:44:20.862Z,60.24
2022-12-15T05:45:00.857Z,59.46
2022-12-15T05:45:40.810Z,57.94
2022-12-15T05:46:20.972Z,56.51
2022-12-15T05:47:00.802Z,57.19
2022-12-15T05:47:40.827Z,59.24
2022-12-15T05:48:20.815Z,59.31
2022-12-15T05:49:00.850Z,59.75
2022-12-15T05:49:41.836Z,59.75
2022-12-15T05:50:21.851Z,60.88
2022-12-15T05:51:01.807Z,60.21
2022-12-15T05:51:58.831Z,60.21
2022-12-15T05:52:52.798Z,61.83
2022-12-15T05:53:46.801Z,58.80
2022-12-15T05:54:40.824Z,58.71
2022-12-15T05:55:20.830Z,57.17
2022-12-15T05:56:10.939Z,58.95
2022-12-15T05:56:51.831Z,60.01
2022-12-15T05:57:31.868Z,58.63
2022-12-15T05:58:12.793Z,57.66
2022-12-15T05:58:52.836Z,56.90
2022-12-15T05:59:32.788Z,58.53
2022-12-15T06:00:13.812Z,58.99
2022-12-15T06:00:48.067Z,58.60
2022-12-15T06:01:35.858Z,59.15
2022-12-15T06:02:09.975Z,58.51
2022-12-15T06:02:56.866Z,59.08
2022-12-15T06:03:31.720Z,60.72
2022-12-15T06:04:19.851Z,58.59
2022-12-15T06:04:53.940Z,59.30
2022-12-15T06:05:33.803Z,59.50
2022-12-15T06:06:15.867Z,58.45
2022-12-15T06:06:55.785Z,58.91
2022-12-15T06:07:37.319Z,59.84
2022-12-15T06:08:16.793Z,60.91
2022-12-15T06:08:56.870Z,60.55
2022-12-15T06:09:36.796Z,61.28
2022-12-15T06:10:16.841Z,62.04
2022-12-15T06:11:03.803Z,59.21
2022-12-15T06:11:43.813Z,59.58
2022-12-15T06:12:24.783Z,60.65
2022-12-15T06:13:05.275Z,58.99
2022-12-15T06:13:44.792Z,58.53
2022-12-15T06:14:24.828Z,58.13
2022-12-15T06:15:05.791Z,58.51
2022-12-15T06:15:45.905Z,60.61
2022-12-15T06:16:27.837Z,60.31
2022-12-15T06:17:08.857Z,61.33
2022-12-15T06:17:49.735Z,63.99
2022-12-15T06:18:30.873Z,64.01
2022-12-15T06:19:10.762Z,64.49
2022-12-15T06:19:50.931Z,69.59
2022-12-15T06:20:30.885Z,74.05
2022-12-15T06:21:23.829Z,70.84
2022-12-15T06:22:04.788Z,66.31
2022-12-15T06:22:49.730Z,59.28
2022-12-15T06:23:30.229Z,60.64
2022-12-15T06:24:12.841Z,65.66
2022-12-15T06:24:53.766Z,70.53
2022-12-15T06:25:33.807Z,64.06
2022-12-15T06:26:27.761Z,61.31
2022-12-15T06:27:15.814Z,70.71
2022-12-15T06:28:09.793Z,80.93
2022-12-15T06:29:04.776Z,81.21
2022-12-15T06:29:58.769Z,77.34
2022-12-15T06:30:52.783Z,73.72
2022-12-15T06:31:47.866Z,67.69
2022-12-15T06:32:34.769Z,66.41
2022-12-15T06:33:08.819Z,68.78
2022-12-15T06:34:02.456Z,69.49
2022-12-15T06:34:36.996Z,69.39
2022-12-15T06:35:23.751Z,67.05
2022-12-15T06:35:59.846Z,65.56
2022-12-15T06:36:47.758Z,66.93
2022-12-15T06:37:21.795Z,64.69
2022-12-15T06:38:01.776Z,61.76
2022-12-15T06:38:45.856Z,60.20
2022-12-15T06:39:29.761Z,59.78
2022-12-15T06:40:09.813Z,60.28
2022-12-15T06:40:49.767Z,59.45
2022-12-15T06:41:30.380Z,58.65
2022-12-15T06:42:10.764Z,58.94
2022-12-15T06:42:50.833Z,59.24
2022-12-15T06:44:33.759Z,67.15
2022-12-15T06:45:08.245Z,63.90
2022-12-15T06:45:56.744Z,64.14
2022-12-15T06:46:31.986Z,61.99
2022-12-15T06:47:18.753Z,64.40
2022-12-15T06:47:56.583Z,62.74
2022-12-15T06:48:51.738Z,62.29
2022-12-15T06:49:25.807Z,60.64
2022-12-15T06:50:05.757Z,58.72
2022-12-15T06:50:45.801Z,59.31
2022-12-15T06:51:30.736Z,59.83
2022-12-15T06:52:10.873Z,60.11
2022-12-15T06:52:51.737Z,60.00
2022-12-15T06:53:32.623Z,58.06
2022-12-15T06:54:13.751Z,57.55
2022-12-15T06:54:54.297Z,57.86
2022-12-15T06:55:33.805Z,58.13
2022-12-15T06:56:30.604Z,58.55
2022-12-15T06:57:12.727Z,58.36
2022-12-15T06:57:55.801Z,59.15
2022-12-15T06:58:35.728Z,58.20
2022-12-15T06:59:17.762Z,57.47
2022-12-15T06:59:57.735Z,56.92
2022-12-15T07:00:44.767Z,55.80
2022-12-15T07:01:39.862Z,56.11
2022-12-15T07:02:36.907Z,57.35
2022-12-15T07:03:33.334Z,57.15
2022-12-15T07:04:27.830Z,57.09
2022-12-15T07:05:21.721Z,57.83
2022-12-15T07:06:14.752Z,57.13
2022-12-15T07:06:49.314Z,56.81
2022-12-15T07:07:36.740Z,59.25
2022-12-15T07:08:11.085Z,59.49
2022-12-15T07:09:00.749Z,58.40
2022-12-15T07:09:34.760Z,58.00
2022-12-15T07:10:21.717Z,60.49
2022-12-15T07:10:55.753Z,60.16
2022-12-15T07:11:36.733Z,61.15
2022-12-15T07:12:19.796Z,63.64
2022-12-15T07:13:02.719Z,66.09
2022-12-15T07:13:42.805Z,67.39
2022-12-15T07:14:22.725Z,66.53
2022-12-15T07:15:03.047Z,64.90
2022-12-15T07:15:43.787Z,66.16
2022-12-15T07:16:24.776Z,64.94
2022-12-15T07:17:05.718Z,67.96
2022-12-15T07:17:45.748Z,69.76
2022-12-15T07:18:25.708Z,69.88
2022-12-15T07:19:05.791Z,69.34
2022-12-15T07:19:45.708Z,69.88
2022-12-15T07:20:28.936Z,69.88
2022-12-15T07:21:12.718Z,69.75
2022-12-15T07:21:52.866Z,70.78
2022-12-15T07:22:34.721Z,69.76
2022-12-15T07:23:14.747Z,65.26
2022-12-15T07:23:56.593Z,62.38
2022-12-15T07:24:37.059Z,60.51
2022-12-15T07:25:17.697Z,60.99
2022-12-15T07:25:57.887Z,61.80
2022-12-15T07:26:38.707Z,61.69
2022-12-15T07:27:18.919Z,62.06
2022-12-15T07:27:59.714Z,62.24
2022-12-15T07:28:40.770Z,60.34
2022-12-15T07:29:23.529Z,59.33
2022-12-15T07:30:03.749Z,59.03
2022-12-15T07:30:44.699Z,58.51
2022-12-15T07:31:24.900Z,59.59
2022-12-15T07:32:06.695Z,60.94
2022-12-15T07:32:50.414Z,60.46
2022-12-15T07:33:33.101Z,60.70
2022-12-15T07:34:13.727Z,61.66
2022-12-15T07:34:54.694Z,63.05
2022-12-15T07:35:34.735Z,62.56
2022-12-15T07:36:15.690Z,62.28
2022-12-15T07:36:55.797Z,65.39
2022-12-15T07:37:36.685Z,66.84
2022-12-15T07:38:16.895Z,66.09
2022-12-15T07:38:57.714Z,65.47
2022-12-15T07:39:37.817Z,64.95
2022-12-15T07:40:18.688Z,65.59
2022-12-15T07:40:58.727Z,66.84
2022-12-15T07:41:38.676Z,68.03
2022-12-15T07:42:19.463Z,70.01
2022-12-15T07:42:59.681Z,69.00
2022-12-15T07:43:39.822Z,66.11
2022-12-15T07:44:21.687Z,64.14
2022-12-15T07:45:01.707Z,64.64
2022-12-15T07:45:44.484Z,65.16
2022-12-15T07:46:29.105Z,65.10
2022-12-15T07:47:09.839Z,64.49
2022-12-15T07:47:50.220Z,66.22
2022-12-15T07:48:31.680Z,66.65
2022-12-15T07:49:11.768Z,66.61
2022-12-15T07:49:52.698Z,66.36
2022-12-15T07:50:32.707Z,64.66
2022-12-15T07:51:19.248Z,61.96
2022-12-15T07:51:59.731Z,62.79
2022-12-15T07:52:39.683Z,62.60
2022-12-15T07:53:19.721Z,65.30
2022-12-15T07:53:59.689Z,67.06
2022-12-15T07:54:39.724Z,68.46
2022-12-15T07:55:37.246Z,68.41
2022-12-15T07:56:19.728Z,66.31
2022-12-15T07:56:59.670Z,68.89
2022-12-15T07:57:39.700Z,68.71
2022-12-15T07:58:19.678Z,64.69
2022-12-15T07:58:59.721Z,64.45
2022-12-15T07:59:43.662Z,65.19
2022-12-15T08:00:30.720Z,66.38
2022-12-15T08:01:27.933Z,65.78
2022-12-15T08:02:24.825Z,64.72
2022-12-15T08:03:18.773Z,62.79
2022-12-15T08:04:12.647Z,63.97
2022-12-15T08:05:06.664Z,65.66
2022-12-15T08:05:56.571Z,67.46
2022-12-15T08:06:32.805Z,68.97
2022-12-15T08:07:19.654Z,67.39
2022-12-15T08:07:53.690Z,65.69
2022-12-15T08:08:40.675Z,65.91
2022-12-15T08:09:14.693Z,66.50
2022-12-15T08:10:01.663Z,64.91
2022-12-15T08:10:35.692Z,64.29
2022-12-15T08:11:19.675Z,64.53
2022-12-15T08:11:59.691Z,66.75
2022-12-15T08:12:39.660Z,66.20
2022-12-15T08:13:52.418Z,66.01
2022-12-15T08:14:22.189Z,65.88
2022-12-15T08:15:02.775Z,65.69
2022-12-15T08:15:44.637Z,65.53
2022-12-15T08:16:32.676Z,66.31
2022-12-15T08:17:26.640Z,66.72
2022-12-15T08:18:21.663Z,67.28
2022-12-15T08:19:17.651Z,67.95
2022-12-15T08:20:11.669Z,69.50
2022-12-15T08:21:05.640Z,68.01
2022-12-15T08:21:53.656Z,67.49
2022-12-15T08:22:27.678Z,66.97
2022-12-15T08:23:14.658Z,65.68
2022-12-15T08:23:49.409Z,65.16
2022-12-15T08:24:36.647Z,64.70
2022-12-15T08:25:11.715Z,64.71
2022-12-15T08:25:58.653Z,66.47
2022-12-15T08:26:32.738Z,66.78
2022-12-15T08:27:12.661Z,66.55
2022-12-15T08:27:52.952Z,66.50
2022-12-15T08:28:32.634Z,65.26
2022-12-15T08:29:50.260Z,64.44
2022-12-15T08:30:16.615Z,64.82
2022-12-15T08:30:56.676Z,62.97
2022-12-15T08:31:39.716Z,61.19
2022-12-15T08:32:26.672Z,62.47
2022-12-15T08:33:21.654Z,62.26
2022-12-15T08:34:17.624Z,62.49
2022-12-15T08:35:31.833Z,61.28
2022-12-15T08:36:28.602Z,62.84
2022-12-15T08:37:22.644Z,63.34
2022-12-15T08:38:05.614Z,63.45
2022-12-15T08:38:49.087Z,62.33
2022-12-15T08:39:29.622Z,61.14
2022-12-15T08:40:09.678Z,64.30
2022-12-15T08:40:49.613Z,64.14
2022-12-15T08:41:35.659Z,63.30
2022-12-15T08:42:15.611Z,65.24
2022-12-15T08:42:55.657Z,65.64
2022-12-15T08:43:35.611Z,65.97
2022-12-15T08:44:16.931Z,67.18
2022-12-15T08:44:56.627Z,66.28
2022-12-15T08:45:36.672Z,64.91
2022-12-15T08:46:17.677Z,65.18
2022-12-15T08:46:57.641Z,66.04
2022-12-15T08:47:37.612Z,66.24
2022-12-15T08:48:17.666Z,64.69
2022-12-15T08:48:59.641Z,64.94
2022-12-15T08:49:40.008Z,64.46
2022-12-15T08:50:19.640Z,63.29
2022-12-15T08:51:03.733Z,63.94
2022-12-15T08:51:43.629Z,63.65
2022-12-15T08:52:23.679Z,63.69
2022-12-15T08:53:29.648Z,64.38
2022-12-15T08:54:12.640Z,64.44
2022-12-15T08:55:06.602Z,63.61
2022-12-15T08:56:00.586Z,64.19
2022-12-15T08:56:54.620Z,66.72
2022-12-15T08:57:48.602Z,68.01
2022-12-15T08:58:42.650Z,68.21
2022-12-15T08:59:29.624Z,69.41
2022-12-15T09:00:04.874Z,67.85
2022-12-15T09:00:52.722Z,68.38
2022-12-15T09:01:28.824Z,67.18
2022-12-15T09:03:19.608Z,65.14
2022-12-15T09:04:13.662Z,62.13
2022-12-15T09:04:54.683Z,61.94
2022-12-15T09:05:34.631Z,61.13
2022-12-15T09:06:31.616Z,61.66
2022-12-15T09:07:11.627Z,63.51
2022-12-15T09:07:51.576Z,64.20
2022-12-15T09:08:31.752Z,62.16
2022-12-15T09:09:14.578Z,63.01
2022-12-15T09:10:01.638Z,64.09
2022-12-15T09:10:55.596Z,62.15
2022-12-15T09:11:49.601Z,62.19
2022-12-15T09:12:43.582Z,65.15
2022-12-15T09:13:37.589Z,66.28
2022-12-15T09:14:32.581Z,66.47
2022-12-15T09:15:19.631Z,66.40
2022-12-15T09:16:09.453Z,68.10
2022-12-15T09:16:56.695Z,69.15
2022-12-15T09:17:31.035Z,69.94
2022-12-15T09:18:18.576Z,71.44
2022-12-15T09:18:55.809Z,70.95
2022-12-15T09:19:42.572Z,70.99
2022-12-15T09:20:17.956Z,72.91
2022-12-15T09:20:59.576Z,74.51
2022-12-15T09:21:40.088Z,74.94
2022-12-15T09:22:19.566Z,76.61
2022-12-15T09:22:59.670Z,75.57
2022-12-15T09:23:41.602Z,76.45
2022-12-15T09:24:32.174Z,81.00
2022-12-15T09:25:15.572Z,83.64
2022-12-15T09:25:55.605Z,84.61
2022-12-15T09:26:42.584Z,84.94
2022-12-15T09:27:16.624Z,88.43
2022-12-15T09:28:03.548Z,90.81
2022-12-15T09:28:40.273Z,88.38
2022-12-15T09:29:27.565Z,86.15
2022-12-15T09:30:01.874Z,81.60
2022-12-15T09:30:48.598Z,76.45
2022-12-15T09:31:25.732Z,72.60
2022-12-15T09:32:09.084Z,72.68
2022-12-15T09:32:53.600Z,74.74
2022-12-15T09:33:34.184Z,75.06
2022-12-15T09:34:19.658Z,76.50
2022-12-15T09:35:00.548Z,75.60
2022-12-15T09:35:40.612Z,74.55
2022-12-15T09:36:21.561Z,74.40
2022-12-15T09:37:01.601Z,74.51
2022-12-15T09:37:41.570Z,73.10
2022-12-15T09:38:21.616Z,71.13
2022-12-15T09:39:01.559Z,71.25
2022-12-15T09:39:41.593Z,70.50
2022-12-15T09:40:21.547Z,70.47
2022-12-15T09:41:01.587Z,70.21
2022-12-15T09:41:42.561Z,70.26
2022-12-15T09:42:35.632Z,69.39
2022-12-15T09:43:34.398Z,65.78
2022-12-15T09:44:21.692Z,63.35
2022-12-15T09:45:18.694Z,63.06
2022-12-15T09:46:54.022Z,63.56
2022-12-15T09:48:00.562Z,65.19
2022-12-15T09:48:47.552Z,64.03
2022-12-15T09:49:56.662Z,61.33
2022-12-15T09:50:45.553Z,61.89
2022-12-15T09:51:25.583Z,60.46
2022-12-15T09:52:18.542Z,60.22
2022-12-15T09:53:01.639Z,60.16
2022-12-15T09:53:57.294Z,60.71
2022-12-15T09:54:40.575Z,60.38
2022-12-15T09:55:39.720Z,62.49
2022-12-15T09:56:27.556Z,63.95
2022-12-15T09:57:16.769Z,63.30
2022-12-15T09:58:10.988Z,62.66
2022-12-15T09:59:10.567Z,62.46
2022-12-15T10:00:17.529Z,62.56
2022-12-15T10:01:33.573Z,63.47
2022-12-15T10:02:58.678Z,63.55
2022-12-15T10:04:13.697Z,62.60
2022-12-15T10:05:50.130Z,63.79
2022-12-15T10:06:45.585Z,65.07
2022-12-15T10:07:38.500Z,65.55
2022-12-15T10:08:18.979Z,65.53
2022-12-15T10:09:13.526Z,65.26
2022-12-15T10:09:53.573Z,65.78
2022-12-15T10:11:00.556Z,66.21
2022-12-15T10:11:54.832Z,63.89
2022-12-15T10:12:46.882Z,61.84
2022-12-15T10:14:12.648Z,62.13
2022-12-15T10:15:04.532Z,61.42
2022-12-15T10:17:33.087Z,59.32
2022-12-15T10:18:50.367Z,65.40
2022-12-15T10:20:00.137Z,66.05
2022-12-15T10:20:54.086Z,66.80
2022-12-15T10:21:36.093Z,67.39
2022-12-15T10:22:29.292Z,65.59
2022-12-15T10:23:22.160Z,64.90
2022-12-15T10:24:31.658Z,65.01
2022-12-15T10:25:34.082Z,65.36